sensor_id;sensor_type;location;lat;lon;timestamp;P1;durP1;ratioP1;P2;durP2;ratioP2
25015;SDS011;13029;46.286;7.488;2023-01-28T00:01:37;28.27;;;15.70;;
25015;SDS011;13029;46.286;7.488;2023-01-28T00:04:02;26.00;;;14.63;;
25015;SDS011;13029;46.286;7.488;2023-01-28T00:06:27;28.67;;;16.23;;
25015;SDS011;13029;46.286;7.488;2023-01-28T00:08:53;29.17;;;16.38;;
25015;SDS011;13029;46.286;7.488;2023-01-28T00:11:19;33.65;;;16.48;;
25015;SDS011;13029;46.286;7.488;2023-01-28T00:13:49;31.25;;;16.05;;
25015;SDS011;13029;46.286;7.488;2023-01-28T00:16:16;28.48;;;15.77;;
25015;SDS011;13029;46.286;7.488;2023-01-28T00:18:41;28.50;;;15.38;;
25015;SDS011;13029;46.286;7.488;2023-01-28T00:21:10;30.65;;;16.08;;
25015;SDS011;13029;46.286;7.488;2023-01-28T00:23:37;27.05;;;14.20;;
25015;SDS011;13029;46.286;7.488;2023-01-28T00:26:05;29.85;;;15.60;;
25015;SDS011;13029;46.286;7.488;2023-01-28T00:28:31;26.95;;;14.90;;
25015;SDS011;13029;46.286;7.488;2023-01-28T00:30:57;28.02;;;14.85;;
25015;SDS011;13029;46.286;7.488;2023-01-28T00:33:22;26.17;;;14.05;;
25015;SDS011;13029;46.286;7.488;2023-01-28T00:35:56;28.35;;;14.38;;
25015;SDS011;13029;46.286;7.488;2023-01-28T00:38:25;24.40;;;14.27;;
25015;SDS011;13029;46.286;7.488;2023-01-28T00:40:50;25.95;;;13.65;;
25015;SDS011;13029;46.286;7.488;2023-01-28T00:43:15;24.52;;;13.35;;
25015;SDS011;13029;46.286;7.488;2023-01-28T00:45:41;26.90;;;14.13;;
25015;SDS011;13029;46.286;7.488;2023-01-28T00:48:06;24.42;;;13.90;;
25015;SDS011;13029;46.286;7.488;2023-01-28T00:50:32;30.83;;;15.65;;
25015;SDS011;13029;46.286;7.488;2023-01-28T00:52:57;27.30;;;15.25;;
25015;SDS011;13029;46.286;7.488;2023-01-28T00:55:23;30.75;;;15.20;;
25015;SDS011;13029;46.286;7.488;2023-01-28T00:57:48;28.38;;;15.30;;
25015;SDS011;13029;46.286;7.488;2023-01-28T01:00:13;34.40;;;17.27;;
25015;SDS011;13029;46.286;7.488;2023-01-28T01:02:39;31.02;;;16.90;;
25015;SDS011;13029;46.286;7.488;2023-01-28T01:05:04;32.13;;;17.63;;
25015;SDS011;13029;46.286;7.488;2023-01-28T01:07:30;31.48;;;16.90;;
25015;SDS011;13029;46.286;7.488;2023-01-28T01:10:09;31.35;;;16.27;;
25015;SDS011;13029;46.286;7.488;2023-01-28T01:12:35;28.45;;;15.32;;
25015;SDS011;13029;46.286;7.488;2023-01-28T01:15:01;27.70;;;14.88;;
25015;SDS011;13029;46.286;7.488;2023-01-28T01:17:30;27.50;;;14.77;;
25015;SDS011;13029;46.286;7.488;2023-01-28T01:19:56;31.27;;;15.43;;
25015;SDS011;13029;46.286;7.488;2023-01-28T01:22:21;27.67;;;14.40;;
25015;SDS011;13029;46.286;7.488;2023-01-28T01:24:47;29.50;;;14.90;;
25015;SDS011;13029;46.286;7.488;2023-01-28T01:27:12;26.05;;;14.00;;
25015;SDS011;13029;46.286;7.488;2023-01-28T01:29:37;27.08;;;14.02;;
25015;SDS011;13029;46.286;7.488;2023-01-28T01:32:03;30.40;;;14.93;;
25015;SDS011;13029;46.286;7.488;2023-01-28T01:34:28;27.83;;;13.63;;
25015;SDS011;13029;46.286;7.488;2023-01-28T01:36:54;29.70;;;14.48;;
25015;SDS011;13029;46.286;7.488;2023-01-28T01:39:19;26.92;;;14.52;;
25015;SDS011;13029;46.286;7.488;2023-01-28T01:41:44;24.08;;;13.50;;
25015;SDS011;13029;46.286;7.488;2023-01-28T01:47:12;24.88;;;13.65;;
25015;SDS011;13029;46.286;7.488;2023-01-28T01:49:38;25.27;;;12.93;;
25015;SDS011;13029;46.286;7.488;2023-01-28T01:52:12;22.40;;;12.88;;
25015;SDS011;13029;46.286;7.488;2023-01-28T01:54:41;31.35;;;14.85;;
25015;SDS011;13029;46.286;7.488;2023-01-28T01:57:10;24.77;;;13.20;;
25015;SDS011;13029;46.286;7.488;2023-01-28T01:59:38;27.98;;;13.52;;
25015;SDS011;13029;46.286;7.488;2023-01-28T02:02:05;26.90;;;13.73;;
25015;SDS011;13029;46.286;7.488;2023-01-28T02:04:32;26.67;;;14.73;;
25015;SDS011;13029;46.286;7.488;2023-01-28T02:07:00;31.45;;;15.50;;
25015;SDS011;13029;46.286;7.488;2023-01-28T02:09:33;27.48;;;14.73;;
25015;SDS011;13029;46.286;7.488;2023-01-28T02:12:01;29.50;;;16.08;;
25015;SDS011;13029;46.286;7.488;2023-01-28T02:14:28;25.05;;;13.48;;
25015;SDS011;13029;46.286;7.488;2023-01-28T02:16:55;27.38;;;14.05;;
25015;SDS011;13029;46.286;7.488;2023-01-28T02:19:20;27.63;;;14.68;;
25015;SDS011;13029;46.286;7.488;2023-01-28T02:22:09;27.80;;;13.98;;
25015;SDS011;13029;46.286;7.488;2023-01-28T02:27:23;23.92;;;13.20;;
25015;SDS011;13029;46.286;7.488;2023-01-28T02:32:45;29.65;;;14.40;;
25015;SDS011;13029;46.286;7.488;2023-01-28T02:35:30;26.38;;;13.90;;
25015;SDS011;13029;46.286;7.488;2023-01-28T02:38:30;24.52;;;13.05;;
25015;SDS011;13029;46.286;7.488;2023-01-28T02:41:02;24.90;;;14.75;;
25015;SDS011;13029;46.286;7.488;2023-01-28T02:43:41;30.35;;;15.10;;
25015;SDS011;13029;46.286;7.488;2023-01-28T02:49:07;23.48;;;12.70;;
25015;SDS011;13029;46.286;7.488;2023-01-28T02:59:41;24.50;;;13.52;;
25015;SDS011;13029;46.286;7.488;2023-01-28T03:02:49;23.55;;;13.02;;
25015;SDS011;13029;46.286;7.488;2023-01-28T03:05:50;25.33;;;13.88;;
25015;SDS011;13029;46.286;7.488;2023-01-28T03:08:34;23.23;;;13.05;;
25015;SDS011;13029;46.286;7.488;2023-01-28T03:11:22;18.83;;;9.65;;
25015;SDS011;13029;46.286;7.488;2023-01-28T03:14:06;26.80;;;13.55;;
25015;SDS011;13029;46.286;7.488;2023-01-28T03:16:51;27.90;;;13.68;;
25015;SDS011;13029;46.286;7.488;2023-01-28T03:19:36;26.10;;;14.60;;
25015;SDS011;13029;46.286;7.488;2023-01-28T03:22:20;27.35;;;13.75;;
25015;SDS011;13029;46.286;7.488;2023-01-28T03:25:05;29.00;;;14.65;;
25015;SDS011;13029;46.286;7.488;2023-01-28T03:27:56;29.77;;;14.77;;
25015;SDS011;13029;46.286;7.488;2023-01-28T03:30:44;25.33;;;14.32;;
25015;SDS011;13029;46.286;7.488;2023-01-28T03:33:32;25.17;;;13.80;;
25015;SDS011;13029;46.286;7.488;2023-01-28T03:36:18;30.13;;;14.57;;
25015;SDS011;13029;46.286;7.488;2023-01-28T03:39:02;24.33;;;12.77;;
25015;SDS011;13029;46.286;7.488;2023-01-28T03:41:27;26.63;;;12.75;;
25015;SDS011;13029;46.286;7.488;2023-01-28T03:43:52;27.67;;;13.80;;
25015;SDS011;13029;46.286;7.488;2023-01-28T03:46:18;25.55;;;13.75;;
25015;SDS011;13029;46.286;7.488;2023-01-28T03:48:44;23.88;;;13.00;;
25015;SDS011;13029;46.286;7.488;2023-01-28T03:51:10;26.30;;;13.73;;
25015;SDS011;13029;46.286;7.488;2023-01-28T03:53:36;25.20;;;12.68;;
25015;SDS011;13029;46.286;7.488;2023-01-28T03:56:02;24.70;;;12.85;;
25015;SDS011;13029;46.286;7.488;2023-01-28T03:58:27;27.60;;;13.45;;
25015;SDS011;13029;46.286;7.488;2023-01-28T04:01:18;28.73;;;14.15;;
25015;SDS011;13029;46.286;7.488;2023-01-28T04:03:43;26.88;;;13.20;;
25015;SDS011;13029;46.286;7.488;2023-01-28T04:06:09;22.30;;;14.30;;
25015;SDS011;13029;46.286;7.488;2023-01-28T04:08:34;23.80;;;13.35;;
25015;SDS011;13029;46.286;7.488;2023-01-28T04:10:59;23.20;;;12.48;;
25015;SDS011;13029;46.286;7.488;2023-01-28T04:13:42;25.63;;;12.88;;
25015;SDS011;13029;46.286;7.488;2023-01-28T04:16:09;25.57;;;12.67;;
25015;SDS011;13029;46.286;7.488;2023-01-28T04:18:34;23.23;;;13.07;;
25015;SDS011;13029;46.286;7.488;2023-01-28T04:21:00;31.17;;;14.27;;
25015;SDS011;13029;46.286;7.488;2023-01-28T04:23:25;27.77;;;13.98;;
25015;SDS011;13029;46.286;7.488;2023-01-28T04:25:51;27.90;;;13.68;;
25015;SDS011;13029;46.286;7.488;2023-01-28T04:28:16;23.83;;;13.65;;
25015;SDS011;13029;46.286;7.488;2023-01-28T04:30:41;26.92;;;14.57;;
25015;SDS011;13029;46.286;7.488;2023-01-28T04:33:07;24.65;;;13.55;;
25015;SDS011;13029;46.286;7.488;2023-01-28T04:35:32;26.73;;;14.68;;
25015;SDS011;13029;46.286;7.488;2023-01-28T04:37:57;25.20;;;14.07;;
25015;SDS011;13029;46.286;7.488;2023-01-28T04:40:23;29.52;;;14.73;;
25015;SDS011;13029;46.286;7.488;2023-01-28T04:42:52;26.75;;;13.38;;
25015;SDS011;13029;46.286;7.488;2023-01-28T04:45:17;34.30;;;15.68;;
25015;SDS011;13029;46.286;7.488;2023-01-28T04:47:43;27.80;;;14.65;;
25015;SDS011;13029;46.286;7.488;2023-01-28T04:50:08;28.98;;;15.77;;
25015;SDS011;13029;46.286;7.488;2023-01-28T04:52:34;27.80;;;14.77;;
25015;SDS011;13029;46.286;7.488;2023-01-28T04:54:59;32.55;;;16.30;;
25015;SDS011;13029;46.286;7.488;2023-01-28T04:57:25;28.17;;;14.70;;
25015;SDS011;13029;46.286;7.488;2023-01-28T04:59:50;29.65;;;15.48;;
25015;SDS011;13029;46.286;7.488;2023-01-28T05:02:15;29.25;;;16.33;;
25015;SDS011;13029;46.286;7.488;2023-01-28T05:04:41;31.38;;;16.13;;
25015;SDS011;13029;46.286;7.488;2023-01-28T05:07:06;31.30;;;17.02;;
25015;SDS011;13029;46.286;7.488;2023-01-28T05:09:31;32.08;;;15.80;;
25015;SDS011;13029;46.286;7.488;2023-01-28T05:11:56;32.72;;;16.45;;
25015;SDS011;13029;46.286;7.488;2023-01-28T05:14:22;28.33;;;15.43;;
25015;SDS011;13029;46.286;7.488;2023-01-28T05:16:49;35.85;;;16.95;;
25015;SDS011;13029;46.286;7.488;2023-01-28T05:19:14;34.90;;;16.95;;
25015;SDS011;13029;46.286;7.488;2023-01-28T05:21:40;30.73;;;15.75;;
25015;SDS011;13029;46.286;7.488;2023-01-28T05:24:05;32.60;;;16.90;;
25015;SDS011;13029;46.286;7.488;2023-01-28T05:26:31;31.70;;;16.90;;
25015;SDS011;13029;46.286;7.488;2023-01-28T05:28:56;35.53;;;16.45;;
25015;SDS011;13029;46.286;7.488;2023-01-28T05:31:21;30.20;;;16.52;;
25015;SDS011;13029;46.286;7.488;2023-01-28T05:33:47;31.15;;;16.75;;
25015;SDS011;13029;46.286;7.488;2023-01-28T05:36:12;33.15;;;17.52;;
25015;SDS011;13029;46.286;7.488;2023-01-28T05:38:37;29.27;;;16.30;;
25015;SDS011;13029;46.286;7.488;2023-01-28T05:41:03;29.58;;;16.20;;
25015;SDS011;13029;46.286;7.488;2023-01-28T05:43:28;29.35;;;15.05;;
25015;SDS011;13029;46.286;7.488;2023-01-28T05:45:53;30.92;;;16.15;;
25015;SDS011;13029;46.286;7.488;2023-01-28T05:48:19;29.80;;;16.30;;
25015;SDS011;13029;46.286;7.488;2023-01-28T05:50:47;31.70;;;16.63;;
25015;SDS011;13029;46.286;7.488;2023-01-28T05:53:13;33.92;;;16.58;;
25015;SDS011;13029;46.286;7.488;2023-01-28T05:55:38;29.40;;;15.57;;
25015;SDS011;13029;46.286;7.488;2023-01-28T05:58:03;33.53;;;17.13;;
25015;SDS011;13029;46.286;7.488;2023-01-28T06:00:29;35.28;;;16.77;;
25015;SDS011;13029;46.286;7.488;2023-01-28T06:02:54;35.10;;;16.83;;
25015;SDS011;13029;46.286;7.488;2023-01-28T06:05:19;31.90;;;15.73;;
25015;SDS011;13029;46.286;7.488;2023-01-28T06:07:48;32.15;;;16.45;;
25015;SDS011;13029;46.286;7.488;2023-01-28T06:10:14;32.60;;;16.55;;
25015;SDS011;13029;46.286;7.488;2023-01-28T06:12:41;30.33;;;15.50;;
25015;SDS011;13029;46.286;7.488;2023-01-28T06:15:07;36.17;;;16.10;;
25015;SDS011;13029;46.286;7.488;2023-01-28T06:17:33;31.98;;;17.10;;
25015;SDS011;13029;46.286;7.488;2023-01-28T06:19:58;32.85;;;16.73;;
25015;SDS011;13029;46.286;7.488;2023-01-28T06:22:23;31.45;;;16.80;;
25015;SDS011;13029;46.286;7.488;2023-01-28T06:24:49;34.92;;;17.52;;
25015;SDS011;13029;46.286;7.488;2023-01-28T06:27:14;36.38;;;18.98;;
25015;SDS011;13029;46.286;7.488;2023-01-28T06:29:39;38.25;;;18.65;;
25015;SDS011;13029;46.286;7.488;2023-01-28T06:32:05;34.50;;;18.63;;
25015;SDS011;13029;46.286;7.488;2023-01-28T06:34:30;32.58;;;18.05;;
25015;SDS011;13029;46.286;7.488;2023-01-28T06:36:55;34.47;;;17.45;;
25015;SDS011;13029;46.286;7.488;2023-01-28T06:39:21;37.20;;;17.65;;
25015;SDS011;13029;46.286;7.488;2023-01-28T06:41:47;31.77;;;17.17;;
25015;SDS011;13029;46.286;7.488;2023-01-28T06:44:13;36.90;;;16.85;;
25015;SDS011;13029;46.286;7.488;2023-01-28T06:46:38;36.78;;;18.52;;
25015;SDS011;13029;46.286;7.488;2023-01-28T06:49:03;34.78;;;18.73;;
25015;SDS011;13029;46.286;7.488;2023-01-28T06:51:29;34.40;;;17.85;;
25015;SDS011;13029;46.286;7.488;2023-01-28T06:53:54;36.25;;;17.30;;
25015;SDS011;13029;46.286;7.488;2023-01-28T06:56:20;32.28;;;17.23;;
25015;SDS011;13029;46.286;7.488;2023-01-28T06:58:45;34.40;;;17.65;;
25015;SDS011;13029;46.286;7.488;2023-01-28T07:01:10;37.47;;;19.17;;
25015;SDS011;13029;46.286;7.488;2023-01-28T07:03:36;36.70;;;18.92;;
25015;SDS011;13029;46.286;7.488;2023-01-28T07:06:01;32.97;;;17.95;;
25015;SDS011;13029;46.286;7.488;2023-01-28T07:08:26;32.10;;;17.05;;
25015;SDS011;13029;46.286;7.488;2023-01-28T07:10:52;39.50;;;18.33;;
25015;SDS011;13029;46.286;7.488;2023-01-28T07:13:17;35.35;;;18.83;;
25015;SDS011;13029;46.286;7.488;2023-01-28T07:15:42;42.20;;;21.00;;
25015;SDS011;13029;46.286;7.488;2023-01-28T07:18:08;37.78;;;19.17;;
25015;SDS011;13029;46.286;7.488;2023-01-28T07:20:33;35.17;;;18.33;;
25015;SDS011;13029;46.286;7.488;2023-01-28T07:22:59;39.85;;;19.20;;
25015;SDS011;13029;46.286;7.488;2023-01-28T07:25:24;34.55;;;17.83;;
25015;SDS011;13029;46.286;7.488;2023-01-28T07:27:50;35.80;;;17.85;;
25015;SDS011;13029;46.286;7.488;2023-01-28T07:30:17;33.40;;;18.15;;
25015;SDS011;13029;46.286;7.488;2023-01-28T07:32:44;34.72;;;16.88;;
25015;SDS011;13029;46.286;7.488;2023-01-28T07:35:09;36.47;;;18.27;;
25015;SDS011;13029;46.286;7.488;2023-01-28T07:37:35;36.70;;;18.45;;
25015;SDS011;13029;46.286;7.488;2023-01-28T07:40:00;36.10;;;17.83;;
25015;SDS011;13029;46.286;7.488;2023-01-28T07:42:26;30.88;;;16.90;;
25015;SDS011;13029;46.286;7.488;2023-01-28T07:44:51;31.23;;;17.58;;
25015;SDS011;13029;46.286;7.488;2023-01-28T07:47:16;31.25;;;16.45;;
25015;SDS011;13029;46.286;7.488;2023-01-28T07:49:43;36.10;;;18.10;;
25015;SDS011;13029;46.286;7.488;2023-01-28T07:52:08;33.63;;;17.15;;
25015;SDS011;13029;46.286;7.488;2023-01-28T07:54:33;37.00;;;18.55;;
25015;SDS011;13029;46.286;7.488;2023-01-28T07:56:59;35.40;;;18.17;;
25015;SDS011;13029;46.286;7.488;2023-01-28T07:59:24;36.00;;;17.58;;
25015;SDS011;13029;46.286;7.488;2023-01-28T08:01:50;35.80;;;18.38;;
25015;SDS011;13029;46.286;7.488;2023-01-28T08:04:15;34.75;;;17.60;;
25015;SDS011;13029;46.286;7.488;2023-01-28T08:06:40;36.88;;;18.30;;
25015;SDS011;13029;46.286;7.488;2023-01-28T08:09:06;36.20;;;18.58;;
25015;SDS011;13029;46.286;7.488;2023-01-28T08:11:32;35.25;;;18.23;;
25015;SDS011;13029;46.286;7.488;2023-01-28T08:13:58;37.42;;;18.05;;
25015;SDS011;13029;46.286;7.488;2023-01-28T08:16:24;36.05;;;18.83;;
25015;SDS011;13029;46.286;7.488;2023-01-28T08:18:49;34.75;;;18.10;;
25015;SDS011;13029;46.286;7.488;2023-01-28T08:21:14;35.17;;;17.92;;
25015;SDS011;13029;46.286;7.488;2023-01-28T08:23:40;35.33;;;18.98;;
25015;SDS011;13029;46.286;7.488;2023-01-28T08:26:05;41.22;;;19.42;;
25015;SDS011;13029;46.286;7.488;2023-01-28T08:28:31;36.15;;;18.35;;
25015;SDS011;13029;46.286;7.488;2023-01-28T08:30:58;33.22;;;17.25;;
25015;SDS011;13029;46.286;7.488;2023-01-28T08:33:24;42.28;;;20.42;;
25015;SDS011;13029;46.286;7.488;2023-01-28T08:35:50;41.05;;;20.13;;
25015;SDS011;13029;46.286;7.488;2023-01-28T08:38:15;31.98;;;15.98;;
25015;SDS011;13029;46.286;7.488;2023-01-28T08:40:41;28.02;;;15.98;;
25015;SDS011;13029;46.286;7.488;2023-01-28T08:43:07;29.38;;;15.35;;
25015;SDS011;13029;46.286;7.488;2023-01-28T08:45:32;30.25;;;15.95;;
25015;SDS011;13029;46.286;7.488;2023-01-28T08:47:59;33.28;;;18.50;;
25015;SDS011;13029;46.286;7.488;2023-01-28T08:50:26;33.45;;;17.55;;
25015;SDS011;13029;46.286;7.488;2023-01-28T08:52:56;31.00;;;17.05;;
25015;SDS011;13029;46.286;7.488;2023-01-28T08:55:23;38.13;;;19.38;;
25015;SDS011;13029;46.286;7.488;2023-01-28T08:57:49;40.42;;;19.58;;
25015;SDS011;13029;46.286;7.488;2023-01-28T09:00:15;39.03;;;20.75;;
25015;SDS011;13029;46.286;7.488;2023-01-28T09:02:41;36.92;;;20.85;;
25015;SDS011;13029;46.286;7.488;2023-01-28T09:05:06;39.80;;;19.30;;
25015;SDS011;13029;46.286;7.488;2023-01-28T09:07:35;34.30;;;17.83;;
25015;SDS011;13029;46.286;7.488;2023-01-28T09:10:01;35.00;;;18.88;;
25015;SDS011;13029;46.286;7.488;2023-01-28T09:12:27;39.65;;;19.60;;
25015;SDS011;13029;46.286;7.488;2023-01-28T09:14:52;34.83;;;18.17;;
25015;SDS011;13029;46.286;7.488;2023-01-28T09:17:18;35.97;;;19.27;;
25015;SDS011;13029;46.286;7.488;2023-01-28T09:19:44;38.58;;;19.08;;
25015;SDS011;13029;46.286;7.488;2023-01-28T09:22:09;38.65;;;20.40;;
25015;SDS011;13029;46.286;7.488;2023-01-28T09:24:35;40.97;;;21.13;;
25015;SDS011;13029;46.286;7.488;2023-01-28T09:27:01;37.60;;;19.30;;
25015;SDS011;13029;46.286;7.488;2023-01-28T09:29:26;42.50;;;19.52;;
25015;SDS011;13029;46.286;7.488;2023-01-28T09:31:51;37.20;;;19.45;;
25015;SDS011;13029;46.286;7.488;2023-01-28T09:34:16;34.75;;;19.25;;
25015;SDS011;13029;46.286;7.488;2023-01-28T09:36:42;43.80;;;20.38;;
25015;SDS011;13029;46.286;7.488;2023-01-28T09:39:07;37.03;;;19.73;;
25015;SDS011;13029;46.286;7.488;2023-01-28T09:41:44;35.05;;;18.80;;
25015;SDS011;13029;46.286;7.488;2023-01-28T09:46:50;43.38;;;21.33;;
25015;SDS011;13029;46.286;7.488;2023-01-28T09:49:31;36.65;;;20.00;;
25015;SDS011;13029;46.286;7.488;2023-01-28T09:52:11;37.53;;;20.15;;
25015;SDS011;13029;46.286;7.488;2023-01-28T09:57:13;35.10;;;19.65;;
25015;SDS011;13029;46.286;7.488;2023-01-28T09:59:44;37.92;;;19.67;;
25015;SDS011;13029;46.286;7.488;2023-01-28T10:02:18;36.20;;;18.02;;
25015;SDS011;13029;46.286;7.488;2023-01-28T10:07:18;35.45;;;17.92;;
25015;SDS011;13029;46.286;7.488;2023-01-28T10:09:55;35.40;;;18.50;;
25015;SDS011;13029;46.286;7.488;2023-01-28T10:17:44;32.47;;;16.85;;
25015;SDS011;13029;46.286;7.488;2023-01-28T10:22:48;37.63;;;18.27;;
25015;SDS011;13029;46.286;7.488;2023-01-28T10:27:46;37.55;;;17.88;;
25015;SDS011;13029;46.286;7.488;2023-01-28T10:30:26;29.52;;;16.88;;
25015;SDS011;13029;46.286;7.488;2023-01-28T10:32:58;28.67;;;16.10;;
25015;SDS011;13029;46.286;7.488;2023-01-28T10:35:28;28.20;;;15.75;;
25015;SDS011;13029;46.286;7.488;2023-01-28T10:38:04;29.23;;;16.77;;
25015;SDS011;13029;46.286;7.488;2023-01-28T10:40:32;26.65;;;15.35;;
25015;SDS011;13029;46.286;7.488;2023-01-28T10:42:58;26.33;;;15.65;;
25015;SDS011;13029;46.286;7.488;2023-01-28T10:45:31;23.20;;;13.88;;
25015;SDS011;13029;46.286;7.488;2023-01-28T10:48:01;24.33;;;14.07;;
25015;SDS011;13029;46.286;7.488;2023-01-28T10:50:53;19.80;;;12.88;;
25015;SDS011;13029;46.286;7.488;2023-01-28T10:53:59;23.95;;;15.93;;
25015;SDS011;13029;46.286;7.488;2023-01-28T10:56:28;24.88;;;14.98;;
25015;SDS011;13029;46.286;7.488;2023-01-28T10:58:59;32.10;;;19.27;;
25015;SDS011;13029;46.286;7.488;2023-01-28T11:01:48;32.90;;;19.65;;
25015;SDS011;13029;46.286;7.488;2023-01-28T11:04:14;31.95;;;19.25;;
25015;SDS011;13029;46.286;7.488;2023-01-28T11:06:42;31.13;;;19.38;;
25015;SDS011;13029;46.286;7.488;2023-01-28T11:09:23;30.92;;;19.60;;
25015;SDS011;13029;46.286;7.488;2023-01-28T11:11:55;27.38;;;17.80;;
25015;SDS011;13029;46.286;7.488;2023-01-28T11:14:23;30.35;;;17.63;;
25015;SDS011;13029;46.286;7.488;2023-01-28T11:16:51;33.88;;;18.95;;
25015;SDS011;13029;46.286;7.488;2023-01-28T11:19:18;30.75;;;19.65;;
25015;SDS011;13029;46.286;7.488;2023-01-28T11:21:49;26.58;;;17.63;;
25015;SDS011;13029;46.286;7.488;2023-01-28T11:24:21;28.42;;;18.13;;
25015;SDS011;13029;46.286;7.488;2023-01-28T11:26:49;23.08;;;15.10;;
25015;SDS011;13029;46.286;7.488;2023-01-28T11:29:26;27.98;;;16.95;;
25015;SDS011;13029;46.286;7.488;2023-01-28T11:31:54;28.52;;;16.65;;
25015;SDS011;13029;46.286;7.488;2023-01-28T11:34:19;23.98;;;15.35;;
25015;SDS011;13029;46.286;7.488;2023-01-28T11:36:51;24.90;;;15.57;;
25015;SDS011;13029;46.286;7.488;2023-01-28T11:39:24;28.00;;;15.43;;
25015;SDS011;13029;46.286;7.488;2023-01-28T11:41:52;23.48;;;15.75;;
25015;SDS011;13029;46.286;7.488;2023-01-28T12:12:06;20.48;;;15.18;;
25015;SDS011;13029;46.286;7.488;2023-01-28T12:28:19;20.45;;;14.95;;
25015;SDS011;13029;46.286;7.488;2023-01-28T12:31:00;20.30;;;14.87;;
25015;SDS011;13029;46.286;7.488;2023-01-28T12:33:37;20.33;;;14.88;;
25015;SDS011;13029;46.286;7.488;2023-01-28T12:42:05;23.05;;;16.23;;
25015;SDS011;13029;46.286;7.488;2023-01-28T12:45:18;22.02;;;15.57;;
25015;SDS011;13029;46.286;7.488;2023-01-28T12:47:30;24.02;;;15.95;;
25015;SDS011;13029;46.286;7.488;2023-01-28T12:50:02;20.80;;;14.95;;
25015;SDS011;13029;46.286;7.488;2023-01-28T12:52:36;24.95;;;15.82;;
25015;SDS011;13029;46.286;7.488;2023-01-28T12:57:48;21.45;;;16.10;;
25015;SDS011;13029;46.286;7.488;2023-01-28T13:05:56;23.83;;;16.48;;
25015;SDS011;13029;46.286;7.488;2023-01-28T13:08:25;20.90;;;15.35;;
25015;SDS011;13029;46.286;7.488;2023-01-28T13:10:51;21.35;;;16.13;;
25015;SDS011;13029;46.286;7.488;2023-01-28T13:16:02;21.27;;;15.70;;
25015;SDS011;13029;46.286;7.488;2023-01-28T13:18:32;20.77;;;16.08;;
25015;SDS011;13029;46.286;7.488;2023-01-28T13:21:04;25.10;;;15.73;;
25015;SDS011;13029;46.286;7.488;2023-01-28T13:23:41;17.95;;;13.55;;
25015;SDS011;13029;46.286;7.488;2023-01-28T13:26:09;18.38;;;13.38;;
25015;SDS011;13029;46.286;7.488;2023-01-28T13:28:35;21.20;;;14.93;;
25015;SDS011;13029;46.286;7.488;2023-01-28T13:31:01;23.38;;;15.73;;
25015;SDS011;13029;46.286;7.488;2023-01-28T13:33:31;25.02;;;16.58;;
25015;SDS011;13029;46.286;7.488;2023-01-28T13:38:23;22.27;;;15.65;;
25015;SDS011;13029;46.286;7.488;2023-01-28T13:40:53;22.95;;;16.00;;
25015;SDS011;13029;46.286;7.488;2023-01-28T13:43:24;24.45;;;16.08;;
25015;SDS011;13029;46.286;7.488;2023-01-28T13:45:54;23.60;;;15.52;;
25015;SDS011;13029;46.286;7.488;2023-01-28T13:56:25;22.25;;;15.43;;
25015;SDS011;13029;46.286;7.488;2023-01-28T13:59:00;25.83;;;15.60;;
25015;SDS011;13029;46.286;7.488;2023-01-28T14:04:23;22.98;;;15.35;;
25015;SDS011;13029;46.286;7.488;2023-01-28T14:07:02;23.17;;;16.13;;
25015;SDS011;13029;46.286;7.488;2023-01-28T14:15:18;20.55;;;15.23;;
25015;SDS011;13029;46.286;7.488;2023-01-28T14:18:12;23.40;;;14.95;;
25015;SDS011;13029;46.286;7.488;2023-01-28T14:20:42;20.38;;;15.05;;
25015;SDS011;13029;46.286;7.488;2023-01-28T14:23:15;22.65;;;15.40;;
25015;SDS011;13029;46.286;7.488;2023-01-28T14:28:11;21.58;;;14.80;;
25015;SDS011;13029;46.286;7.488;2023-01-28T14:30:46;21.52;;;14.98;;
25015;SDS011;13029;46.286;7.488;2023-01-28T14:33:16;22.55;;;15.65;;
25015;SDS011;13029;46.286;7.488;2023-01-28T14:35:45;23.35;;;15.50;;
25015;SDS011;13029;46.286;7.488;2023-01-28T14:38:13;20.35;;;14.98;;
25015;SDS011;13029;46.286;7.488;2023-01-28T14:40:40;21.88;;;15.25;;
25015;SDS011;13029;46.286;7.488;2023-01-28T14:43:06;24.30;;;15.57;;
25015;SDS011;13029;46.286;7.488;2023-01-28T14:51:29;26.75;;;15.60;;
25015;SDS011;13029;46.286;7.488;2023-01-28T14:54:09;22.77;;;14.23;;
25015;SDS011;13029;46.286;7.488;2023-01-28T15:02:31;22.27;;;13.68;;
25015;SDS011;13029;46.286;7.488;2023-01-28T15:05:06;24.67;;;13.50;;
25015;SDS011;13029;46.286;7.488;2023-01-28T15:07:52;24.23;;;13.65;;
25015;SDS011;13029;46.286;7.488;2023-01-28T15:12:53;22.85;;;14.13;;
25015;SDS011;13029;46.286;7.488;2023-01-28T15:17:52;24.55;;;13.88;;
25015;SDS011;13029;46.286;7.488;2023-01-28T15:20:18;21.75;;;13.55;;
25015;SDS011;13029;46.286;7.488;2023-01-28T15:22:45;21.30;;;13.35;;
25015;SDS011;13029;46.286;7.488;2023-01-28T15:25:17;26.17;;;14.27;;
25015;SDS011;13029;46.286;7.488;2023-01-28T15:27:44;24.45;;;14.50;;
25015;SDS011;13029;46.286;7.488;2023-01-28T15:30:20;25.65;;;13.50;;
25015;SDS011;13029;46.286;7.488;2023-01-28T15:35:51;23.50;;;13.45;;
25015;SDS011;13029;46.286;7.488;2023-01-28T15:38:17;24.73;;;12.77;;
25015;SDS011;13029;46.286;7.488;2023-01-28T15:40:44;22.30;;;14.00;;
25015;SDS011;13029;46.286;7.488;2023-01-28T15:43:19;22.45;;;13.32;;
25015;SDS011;13029;46.286;7.488;2023-01-28T15:45:46;20.42;;;13.07;;
25015;SDS011;13029;46.286;7.488;2023-01-28T15:48:12;23.33;;;12.77;;
25015;SDS011;13029;46.286;7.488;2023-01-28T15:50:38;20.17;;;13.07;;
25015;SDS011;13029;46.286;7.488;2023-01-28T15:53:06;23.85;;;13.52;;
25015;SDS011;13029;46.286;7.488;2023-01-28T15:55:34;21.83;;;12.85;;
25015;SDS011;13029;46.286;7.488;2023-01-28T16:01:28;27.30;;;13.27;;
25015;SDS011;13029;46.286;7.488;2023-01-28T16:03:58;23.85;;;13.38;;
25015;SDS011;13029;46.286;7.488;2023-01-28T16:06:38;21.45;;;12.45;;
25015;SDS011;13029;46.286;7.488;2023-01-28T16:09:08;20.65;;;13.75;;
25015;SDS011;13029;46.286;7.488;2023-01-28T16:11:42;24.08;;;13.90;;
25015;SDS011;13029;46.286;7.488;2023-01-28T16:14:26;24.48;;;14.57;;
25015;SDS011;13029;46.286;7.488;2023-01-28T16:16:54;21.33;;;13.10;;
25015;SDS011;13029;46.286;7.488;2023-01-28T16:22:17;22.85;;;13.63;;
25015;SDS011;13029;46.286;7.488;2023-01-28T16:24:47;22.08;;;13.30;;
25015;SDS011;13029;46.286;7.488;2023-01-28T16:29:44;23.45;;;13.30;;
25015;SDS011;13029;46.286;7.488;2023-01-28T16:37:42;23.77;;;14.25;;
25015;SDS011;13029;46.286;7.488;2023-01-28T16:40:08;24.83;;;13.48;;
25015;SDS011;13029;46.286;7.488;2023-01-28T16:42:34;23.75;;;13.75;;
25015;SDS011;13029;46.286;7.488;2023-01-28T16:44:59;24.55;;;12.90;;
25015;SDS011;13029;46.286;7.488;2023-01-28T16:47:24;24.15;;;13.27;;
25015;SDS011;13029;46.286;7.488;2023-01-28T16:49:50;24.15;;;13.27;;
25015;SDS011;13029;46.286;7.488;2023-01-28T16:52:15;24.40;;;13.88;;
25015;SDS011;13029;46.286;7.488;2023-01-28T16:54:42;25.08;;;14.13;;
25015;SDS011;13029;46.286;7.488;2023-01-28T16:57:14;31.52;;;14.88;;
25015;SDS011;13029;46.286;7.488;2023-01-28T17:02:08;27.48;;;13.90;;
25015;SDS011;13029;46.286;7.488;2023-01-28T17:04:35;25.30;;;14.07;;
25015;SDS011;13029;46.286;7.488;2023-01-28T17:07:01;26.80;;;14.65;;